sensor_id;sensor_type;location;lat;lon;timestamp;pressure;altitude;pressure_sealevel;temperature;humidity
9969;BME280;5025;48.890;9.278;2022-07-01T00:01:25;98813.84;;;16.30;73.64
9969;BME280;5025;48.890;9.278;2022-07-01T00:03:50;98816.03;;;16.33;74.07
9969;BME280;5025;48.890;9.278;2022-07-01T00:06:17;98825.22;;;16.22;74.17
9969;BME280;5025;48.890;9.278;2022-07-01T00:08:43;98830.47;;;16.34;74.15
9969;BME280;5025;48.890;9.278;2022-07-01T00:11:09;98826.69;;;16.45;74.25
9969;BME280;5025;48.890;9.278;2022-07-01T00:13:34;98830.25;;;16.51;74.22
9969;BME280;5025;48.890;9.278;2022-07-01T00:16:00;98840.91;;;16.52;73.97
9969;BME280;5025;48.890;9.278;2022-07-01T00:18:25;98844.69;;;16.41;73.54
9969;BME280;5025;48.890;9.278;2022-07-01T00:20:51;98853.94;;;16.45;73.95
9969;BME280;5025;48.890;9.278;2022-07-01T00:23:17;98857.25;;;16.57;73.77
9969;BME280;5025;48.890;9.278;2022-07-01T00:25:43;98846.09;;;16.59;73.55
9969;BME280;5025;48.890;9.278;2022-07-01T00:28:09;98835.47;;;16.57;73.72
9969;BME280;5025;48.890;9.278;2022-07-01T00:30:34;98829.78;;;16.69;73.74
9969;BME280;5025;48.890;9.278;2022-07-01T00:33:00;98842.91;;;16.82;73.29
9969;BME280;5025;48.890;9.278;2022-07-01T00:35:25;98843.81;;;16.93;73.29
9969;BME280;5025;48.890;9.278;2022-07-01T00:37:50;98850.38;;;17.02;73.14
9969;BME280;5025;48.890;9.278;2022-07-01T00:40:16;98858.25;;;16.99;73.12
9969;BME280;5025;48.890;9.278;2022-07-01T00:42:41;98854.44;;;16.95;72.81
9969;BME280;5025;48.890;9.278;2022-07-01T00:45:11;98849.47;;;16.81;72.70
9969;BME280;5025;48.890;9.278;2022-07-01T00:47:37;98859.25;;;16.72;72.96
9969;BME280;5025;48.890;9.278;2022-07-01T00:50:07;98848.59;;;16.71;72.85
9969;BME280;5025;48.890;9.278;2022-07-01T00:52:33;98849.41;;;16.66;72.88
9969;BME280;5025;48.890;9.278;2022-07-01T00:55:00;98841.44;;;16.54;72.39
9969;BME280;5025;48.890;9.278;2022-07-01T00:57:30;98829.69;;;16.43;72.52
9969;BME280;5025;48.890;9.278;2022-07-01T00:59:56;98823.41;;;16.38;72.73
9969;BME280;5025;48.890;9.278;2022-07-01T01:02:21;98819.34;;;16.45;72.72
9969;BME280;5025;48.890;9.278;2022-07-01T01:04:47;98803.84;;;16.61;72.56
9969;BME280;5025;48.890;9.278;2022-07-01T01:07:13;98810.97;;;16.73;72.53
9969;BME280;5025;48.890;9.278;2022-07-01T01:09:39;98816.38;;;16.52;72.56
9969;BME280;5025;48.890;9.278;2022-07-01T01:12:04;98826.16;;;16.48;72.71
9969;BME280;5025;48.890;9.278;2022-07-01T01:14:51;98804.34;;;16.48;72.57
9969;BME280;5025;48.890;9.278;2022-07-01T01:17:18;98810.22;;;16.19;72.81
9969;BME280;5025;48.890;9.278;2022-07-01T01:19:44;98817.53;;;16.08;73.45
9969;BME280;5025;48.890;9.278;2022-07-01T01:22:10;98813.19;;;16.12;73.71
9969;BME280;5025;48.890;9.278;2022-07-01T01:24:37;98815.03;;;16.02;73.75
9969;BME280;5025;48.890;9.278;2022-07-01T01:27:06;98806.22;;;15.89;74.52
9969;BME280;5025;48.890;9.278;2022-07-01T01:29:31;98800.06;;;15.99;74.65
9969;BME280;5025;48.890;9.278;2022-07-01T01:31:57;98797.00;;;15.95;74.83
9969;BME280;5025;48.890;9.278;2022-07-01T01:34:22;98795.16;;;16.06;74.46
9969;BME280;5025;48.890;9.278;2022-07-01T01:36:48;98797.53;;;15.87;74.67
9969;BME280;5025;48.890;9.278;2022-07-01T01:39:13;98798.56;;;15.81;75.03
9969;BME280;5025;48.890;9.278;2022-07-01T01:41:42;98785.41;;;15.68;75.49
9969;BME280;5025;48.890;9.278;2022-07-01T01:44:08;98781.56;;;15.64;76.04
9969;BME280;5025;48.890;9.278;2022-07-01T01:46:33;98768.34;;;15.40;76.89
9969;BME280;5025;48.890;9.278;2022-07-01T01:49:00;98764.91;;;15.22;77.65
9969;BME280;5025;48.890;9.278;2022-07-01T01:51:26;98755.78;;;15.34;77.87
9969;BME280;5025;48.890;9.278;2022-07-01T01:53:52;98749.31;;;15.45;77.74
9969;BME280;5025;48.890;9.278;2022-07-01T01:56:17;98749.97;;;15.63;77.08
9969;BME280;5025;48.890;9.278;2022-07-01T01:58:42;98741.13;;;15.40;76.01
9969;BME280;5025;48.890;9.278;2022-07-01T02:01:11;98736.66;;;15.29;76.44
9969;BME280;5025;48.890;9.278;2022-07-01T02:03:38;98738.53;;;15.23;76.51
9969;BME280;5025;48.890;9.278;2022-07-01T02:06:04;98728.97;;;15.15;76.76
9969;BME280;5025;48.890;9.278;2022-07-01T02:08:30;98733.06;;;15.18;77.15
9969;BME280;5025;48.890;9.278;2022-07-01T02:10:56;98725.41;;;15.15;77.16
9969;BME280;5025;48.890;9.278;2022-07-01T02:13:22;98709.41;;;15.18;76.95
9969;BME280;5025;48.890;9.278;2022-07-01T02:15:48;98707.75;;;15.17;76.97
9969;BME280;5025;48.890;9.278;2022-07-01T02:18:14;98708.09;;;15.26;77.11
9969;BME280;5025;48.890;9.278;2022-07-01T02:20:40;98702.94;;;15.30;76.92
9969;BME280;5025;48.890;9.278;2022-07-01T02:23:06;98699.81;;;15.11;77.02
9969;BME280;5025;48.890;9.278;2022-07-01T02:25:31;98690.88;;;15.15;77.57
9969;BME280;5025;48.890;9.278;2022-07-01T02:27:57;98697.50;;;15.30;77.39
9969;BME280;5025;48.890;9.278;2022-07-01T02:30:23;98687.66;;;15.18;77.53
9969;BME280;5025;48.890;9.278;2022-07-01T02:32:49;98696.53;;;15.09;78.02
9969;BME280;5025;48.890;9.278;2022-07-01T02:35:14;98700.03;;;15.04;78.78
9969;BME280;5025;48.890;9.278;2022-07-01T02:37:39;98712.66;;;15.15;78.60
9969;BME280;5025;48.890;9.278;2022-07-01T02:40:05;98712.69;;;15.26;78.57
9969;BME280;5025;48.890;9.278;2022-07-01T02:42:31;98718.66;;;15.22;78.57
9969;BME280;5025;48.890;9.278;2022-07-01T02:45:03;98721.81;;;15.41;78.23
9969;BME280;5025;48.890;9.278;2022-07-01T02:47:33;98729.63;;;15.33;78.00
9969;BME280;5025;48.890;9.278;2022-07-01T02:49:59;98742.72;;;15.36;78.04
9969;BME280;5025;48.890;9.278;2022-07-01T02:52:24;98741.03;;;15.30;77.79
9969;BME280;5025;48.890;9.278;2022-07-01T02:54:49;98748.78;;;15.48;77.78
9969;BME280;5025;48.890;9.278;2022-07-01T02:57:14;98760.59;;;15.64;77.50
9969;BME280;5025;48.890;9.278;2022-07-01T02:59:40;98763.53;;;15.52;77.16
9969;BME280;5025;48.890;9.278;2022-07-01T03:02:05;98764.06;;;15.54;77.17
9969;BME280;5025;48.890;9.278;2022-07-01T03:04:31;98759.22;;;15.62;77.05
9969;BME280;5025;48.890;9.278;2022-07-01T03:06:56;98751.69;;;15.74;76.96
9969;BME280;5025;48.890;9.278;2022-07-01T03:09:22;98772.47;;;15.85;76.78
9969;BME280;5025;48.890;9.278;2022-07-01T03:11:47;98776.78;;;15.81;76.51
9969;BME280;5025;48.890;9.278;2022-07-01T03:14:13;98778.03;;;15.63;76.30
9969;BME280;5025;48.890;9.278;2022-07-01T03:16:38;98779.47;;;15.76;76.27
9969;BME280;5025;48.890;9.278;2022-07-01T03:19:03;98770.56;;;15.86;76.06
9969;BME280;5025;48.890;9.278;2022-07-01T03:21:30;98774.66;;;15.88;76.03
9969;BME280;5025;48.890;9.278;2022-07-01T03:23:56;98771.44;;;15.97;75.83
9969;BME280;5025;48.890;9.278;2022-07-01T03:26:21;98785.28;;;15.90;75.59
9969;BME280;5025;48.890;9.278;2022-07-01T03:28:46;98791.88;;;15.99;75.58
9969;BME280;5025;48.890;9.278;2022-07-01T03:31:12;98798.31;;;15.88;74.78
9969;BME280;5025;48.890;9.278;2022-07-01T03:33:37;98798.31;;;15.88;74.73
9969;BME280;5025;48.890;9.278;2022-07-01T03:36:02;98798.06;;;15.89;74.58
9969;BME280;5025;48.890;9.278;2022-07-01T03:38:28;98799.19;;;15.93;74.68
9969;BME280;5025;48.890;9.278;2022-07-01T03:40:53;98796.38;;;15.78;74.24
9969;BME280;5025;48.890;9.278;2022-07-01T03:43:19;98799.97;;;15.84;74.39
9969;BME280;5025;48.890;9.278;2022-07-01T03:45:44;98820.81;;;15.73;74.45
9969;BME280;5025;48.890;9.278;2022-07-01T03:48:09;98839.00;;;15.67;74.57
9969;BME280;5025;48.890;9.278;2022-07-01T03:50:36;98845.75;;;15.59;74.94
9969;BME280;5025;48.890;9.278;2022-07-01T03:53:01;98848.47;;;15.59;74.92
9969;BME280;5025;48.890;9.278;2022-07-01T03:55:45;98856.19;;;15.68;74.85
9969;BME280;5025;48.890;9.278;2022-07-01T03:58:11;98866.56;;;15.71;74.89
9969;BME280;5025;48.890;9.278;2022-07-01T04:00:37;98857.81;;;15.69;75.12
9969;BME280;5025;48.890;9.278;2022-07-01T04:03:04;98864.66;;;15.71;75.23
9969;BME280;5025;48.890;9.278;2022-07-01T04:05:32;98869.88;;;15.78;75.06
9969;BME280;5025;48.890;9.278;2022-07-01T04:07:58;98890.06;;;15.77;75.02
9969;BME280;5025;48.890;9.278;2022-07-01T04:10:23;98890.81;;;15.72;75.04
9969;BME280;5025;48.890;9.278;2022-07-01T04:12:48;98890.69;;;15.62;75.25
9969;BME280;5025;48.890;9.278;2022-07-01T04:15:14;98889.78;;;15.51;75.42
9969;BME280;5025;48.890;9.278;2022-07-01T04:17:39;98878.91;;;15.51;75.92
9969;BME280;5025;48.890;9.278;2022-07-01T04:20:05;98895.59;;;15.60;75.89
9969;BME280;5025;48.890;9.278;2022-07-01T04:22:30;98909.72;;;15.57;75.70
9969;BME280;5025;48.890;9.278;2022-07-01T04:24:59;98921.94;;;15.54;75.87
9969;BME280;5025;48.890;9.278;2022-07-01T04:27:26;98926.56;;;15.54;75.81
9969;BME280;5025;48.890;9.278;2022-07-01T04:29:51;98941.72;;;15.45;75.85
9969;BME280;5025;48.890;9.278;2022-07-01T04:32:16;98945.97;;;15.35;76.78
9969;BME280;5025;48.890;9.278;2022-07-01T04:34:42;98945.66;;;15.32;76.99
9969;BME280;5025;48.890;9.278;2022-07-01T04:37:07;98948.84;;;15.23;77.09
9969;BME280;5025;48.890;9.278;2022-07-01T04:39:32;98951.63;;;15.06;77.91
9969;BME280;5025;48.890;9.278;2022-07-01T04:41:58;98951.09;;;15.04;78.22
9969;BME280;5025;48.890;9.278;2022-07-01T04:44:30;98952.09;;;14.98;78.26
9969;BME280;5025;48.890;9.278;2022-07-01T04:46:56;98942.66;;;14.84;79.08
9969;BME280;5025;48.890;9.278;2022-07-01T04:49:21;98939.75;;;14.91;79.09
9969;BME280;5025;48.890;9.278;2022-07-01T04:51:47;98936.03;;;14.97;79.27
9969;BME280;5025;48.890;9.278;2022-07-01T04:54:12;98932.97;;;15.15;78.72
9969;BME280;5025;48.890;9.278;2022-07-01T04:56:37;98933.78;;;15.16;78.88
9969;BME280;5025;48.890;9.278;2022-07-01T04:59:03;98938.00;;;15.29;78.76
9969;BME280;5025;48.890;9.278;2022-07-01T05:01:29;98944.63;;;15.38;78.64
9969;BME280;5025;48.890;9.278;2022-07-01T05:03:59;98933.81;;;15.43;78.65
9969;BME280;5025;48.890;9.278;2022-07-01T05:06:25;98940.28;;;15.37;78.23
9969;BME280;5025;48.890;9.278;2022-07-01T05:08:50;98942.16;;;15.36;78.17
9969;BME280;5025;48.890;9.278;2022-07-01T05:11:16;98947.25;;;15.28;77.90
9969;BME280;5025;48.890;9.278;2022-07-01T05:13:41;98949.41;;;15.26;78.13
9969;BME280;5025;48.890;9.278;2022-07-01T05:16:07;98945.13;;;15.35;78.18
9969;BME280;5025;48.890;9.278;2022-07-01T05:18:34;98947.56;;;15.31;78.04
9969;BME280;5025;48.890;9.278;2022-07-01T05:21:18;98944.13;;;15.41;78.00
9969;BME280;5025;48.890;9.278;2022-07-01T05:24:02;98954.50;;;15.44;77.70
9969;BME280;5025;48.890;9.278;2022-07-01T05:26:28;98961.00;;;15.16;77.79
9969;BME280;5025;48.890;9.278;2022-07-01T05:28:53;98977.00;;;15.12;78.35
9969;BME280;5025;48.890;9.278;2022-07-01T05:31:19;98976.94;;;15.07;78.92
9969;BME280;5025;48.890;9.278;2022-07-01T05:33:45;98970.88;;;15.00;79.35
9969;BME280;5025;48.890;9.278;2022-07-01T05:36:12;98960.00;;;15.00;79.87
9969;BME280;5025;48.890;9.278;2022-07-01T05:38:37;98960.81;;;15.00;79.87
9969;BME280;5025;48.890;9.278;2022-07-01T05:41:02;98960.56;;;15.02;80.10
9969;BME280;5025;48.890;9.278;2022-07-01T05:43:28;98950.25;;;15.04;80.07
9969;BME280;5025;48.890;9.278;2022-07-01T05:45:54;98937.06;;;15.18;79.97
9969;BME280;5025;48.890;9.278;2022-07-01T05:48:20;98943.69;;;15.27;79.92
9969;BME280;5025;48.890;9.278;2022-07-01T05:50:45;98952.88;;;15.21;79.49
9969;BME280;5025;48.890;9.278;2022-07-01T05:53:12;98958.47;;;15.09;79.49
9969;BME280;5025;48.890;9.278;2022-07-01T05:55:38;98951.63;;;15.06;79.75
9969;BME280;5025;48.890;9.278;2022-07-01T05:58:03;98945.44;;;15.11;79.83
9969;BME280;5025;48.890;9.278;2022-07-01T06:00:28;98948.16;;;15.11;79.62
9969;BME280;5025;48.890;9.278;2022-07-01T06:02:54;98960.94;;;15.11;79.46
9969;BME280;5025;48.890;9.278;2022-07-01T06:05:20;98955.28;;;15.17;79.39
9969;BME280;5025;48.890;9.278;2022-07-01T06:07:45;98957.88;;;15.29;79.39
9969;BME280;5025;48.890;9.278;2022-07-01T06:10:11;98959.34;;;15.37;79.17
9969;BME280;5025;48.890;9.278;2022-07-01T06:12:40;98957.69;;;15.36;79.05
9969;BME280;5025;48.890;9.278;2022-07-01T06:15:08;98955.59;;;15.43;78.90
9969;BME280;5025;48.890;9.278;2022-07-01T06:17:35;98955.63;;;15.48;78.93
9969;BME280;5025;48.890;9.278;2022-07-01T06:20:00;98949.66;;;15.51;78.73
9969;BME280;5025;48.890;9.278;2022-07-01T06:22:25;98959.53;;;15.57;78.72
9969;BME280;5025;48.890;9.278;2022-07-01T06:24:51;98970.72;;;15.61;78.69
9969;BME280;5025;48.890;9.278;2022-07-01T06:27:16;98957.88;;;15.56;78.54
9969;BME280;5025;48.890;9.278;2022-07-01T06:29:41;98964.88;;;15.47;78.68
9969;BME280;5025;48.890;9.278;2022-07-01T06:32:07;98973.25;;;15.40;78.84
9969;BME280;5025;48.890;9.278;2022-07-01T06:34:33;98985.91;;;15.30;79.02
9969;BME280;5025;48.890;9.278;2022-07-01T06:36:58;98983.22;;;15.35;79.06
9969;BME280;5025;48.890;9.278;2022-07-01T06:39:26;98992.78;;;15.37;79.12
9969;BME280;5025;48.890;9.278;2022-07-01T06:41:51;98988.16;;;15.38;79.09
9969;BME280;5025;48.890;9.278;2022-07-01T06:44:17;98984.72;;;15.20;79.54
9969;BME280;5025;48.890;9.278;2022-07-01T06:46:42;98988.56;;;15.24;79.73
9969;BME280;5025;48.890;9.278;2022-07-01T06:49:07;98995.66;;;15.26;80.16
9969;BME280;5025;48.890;9.278;2022-07-01T06:51:33;99003.13;;;14.91;80.28
9969;BME280;5025;48.890;9.278;2022-07-01T06:53:58;99021.03;;;14.70;80.82
9969;BME280;5025;48.890;9.278;2022-07-01T06:56:24;99002.91;;;14.59;81.67
9969;BME280;5025;48.890;9.278;2022-07-01T06:58:49;98995.06;;;14.79;81.29
9969;BME280;5025;48.890;9.278;2022-07-01T07:01:14;99001.09;;;14.81;81.70
9969;BME280;5025;48.890;9.278;2022-07-01T07:03:40;99011.31;;;14.74;82.21
9969;BME280;5025;48.890;9.278;2022-07-01T07:06:05;99010.16;;;14.70;82.13
9969;BME280;5025;48.890;9.278;2022-07-01T07:08:31;99013.78;;;14.76;82.59
9969;BME280;5025;48.890;9.278;2022-07-01T07:10:57;99025.97;;;14.73;82.25
9969;BME280;5025;48.890;9.278;2022-07-01T07:13:23;99034.22;;;14.78;82.51
9969;BME280;5025;48.890;9.278;2022-07-01T07:15:49;99032.72;;;14.87;82.32
9969;BME280;5025;48.890;9.278;2022-07-01T07:18:14;99029.25;;;14.92;81.86
9969;BME280;5025;48.890;9.278;2022-07-01T07:20:40;99033.06;;;14.74;81.72
9969;BME280;5025;48.890;9.278;2022-07-01T07:23:05;99035.53;;;14.59;82.32
9969;BME280;5025;48.890;9.278;2022-07-01T07:25:31;99041.81;;;14.42;82.51
9969;BME280;5025;48.890;9.278;2022-07-01T07:27:56;99041.31;;;14.45;83.09
9969;BME280;5025;48.890;9.278;2022-07-01T07:30:22;99033.72;;;14.47;83.13
9969;BME280;5025;48.890;9.278;2022-07-01T07:32:48;99044.44;;;14.37;82.77
9969;BME280;5025;48.890;9.278;2022-07-01T07:35:13;99046.56;;;14.52;83.03
9969;BME280;5025;48.890;9.278;2022-07-01T07:37:40;99040.06;;;14.70;82.91
9969;BME280;5025;48.890;9.278;2022-07-01T07:40:06;99039.72;;;14.83;82.60
9969;BME280;5025;48.890;9.278;2022-07-01T07:42:33;99040.44;;;14.96;82.17
9969;BME280;5025;48.890;9.278;2022-07-01T07:44:58;99038.94;;;15.05;82.01
9969;BME280;5025;48.890;9.278;2022-07-01T07:47:24;99047.13;;;15.10;81.64
9969;BME280;5025;48.890;9.278;2022-07-01T07:49:50;99051.63;;;14.99;81.05
9969;BME280;5025;48.890;9.278;2022-07-01T07:52:15;99045.94;;;15.01;81.09
9969;BME280;5025;48.890;9.278;2022-07-01T07:54:40;99034.38;;;15.11;81.09
9969;BME280;5025;48.890;9.278;2022-07-01T07:57:06;99039.06;;;15.15;80.76
9969;BME280;5025;48.890;9.278;2022-07-01T07:59:33;99044.81;;;15.19;80.44
9969;BME280;5025;48.890;9.278;2022-07-01T08:01:58;99034.00;;;15.02;79.59
9969;BME280;5025;48.890;9.278;2022-07-01T08:04:23;99041.00;;;14.98;79.67
9969;BME280;5025;48.890;9.278;2022-07-01T08:06:49;99047.44;;;14.92;79.47
9969;BME280;5025;48.890;9.278;2022-07-01T08:09:14;99052.31;;;14.90;79.30
9969;BME280;5025;48.890;9.278;2022-07-01T08:11:39;99033.63;;;14.76;79.58
9969;BME280;5025;48.890;9.278;2022-07-01T08:14:05;99031.25;;;14.80;79.92
9969;BME280;5025;48.890;9.278;2022-07-01T08:16:30;99045.66;;;14.80;80.14
9969;BME280;5025;48.890;9.278;2022-07-01T08:18:55;99057.94;;;14.83;80.14
9969;BME280;5025;48.890;9.278;2022-07-01T08:21:21;99059.91;;;14.87;80.38
9969;BME280;5025;48.890;9.278;2022-07-01T08:23:46;99073.25;;;14.89;80.72
9969;BME280;5025;48.890;9.278;2022-07-01T08:26:12;99067.72;;;14.84;80.72
9969;BME280;5025;48.890;9.278;2022-07-01T08:28:39;99064.97;;;15.01;80.55
9969;BME280;5025;48.890;9.278;2022-07-01T08:31:04;99073.28;;;15.11;80.20
9969;BME280;5025;48.890;9.278;2022-07-01T08:33:29;99077.31;;;15.09;80.38
9969;BME280;5025;48.890;9.278;2022-07-01T08:35:55;99084.91;;;15.06;80.66
9969;BME280;5025;48.890;9.278;2022-07-01T08:38:20;99083.25;;;15.05;80.43
9969;BME280;5025;48.890;9.278;2022-07-01T08:40:45;99097.19;;;15.09;80.44
9969;BME280;5025;48.890;9.278;2022-07-01T08:43:11;99095.53;;;15.08;80.34
9969;BME280;5025;48.890;9.278;2022-07-01T08:45:36;99099.91;;;15.09;80.46
9969;BME280;5025;48.890;9.278;2022-07-01T08:48:03;99110.91;;;15.19;80.52
9969;BME280;5025;48.890;9.278;2022-07-01T08:50:39;99097.91;;;15.21;80.30
9969;BME280;5025;48.890;9.278;2022-07-01T08:53:05;99105.63;;;15.30;80.01
9969;BME280;5025;48.890;9.278;2022-07-01T08:55:31;99105.47;;;15.19;79.66
9969;BME280;5025;48.890;9.278;2022-07-01T08:57:56;99112.78;;;14.97;79.48
9969;BME280;5025;48.890;9.278;2022-07-01T09:00:29;99107.03;;;14.76;79.17
9969;BME280;5025;48.890;9.278;2022-07-01T09:03:00;99111.81;;;14.69;79.89
9969;BME280;5025;48.890;9.278;2022-07-01T09:05:27;99112.56;;;14.81;80.12
9969;BME280;5025;48.890;9.278;2022-07-01T09:07:58;99109.97;;;14.92;80.11
9969;BME280;5025;48.890;9.278;2022-07-01T09:10:25;99115.59;;;14.85;80.10
9969;BME280;5025;48.890;9.278;2022-07-01T09:12:50;99118.50;;;14.78;80.34
9969;BME280;5025;48.890;9.278;2022-07-01T09:15:27;99120.09;;;14.96;80.23
9969;BME280;5025;48.890;9.278;2022-07-01T09:18:16;99121.94;;;14.91;79.57
9969;BME280;5025;48.890;9.278;2022-07-01T09:20:45;99123.06;;;14.95;79.84
9969;BME280;5025;48.890;9.278;2022-07-01T09:23:15;99114.34;;;15.10;79.57
9969;BME280;5025;48.890;9.278;2022-07-01T09:25:46;99118.59;;;15.22;79.29
9969;BME280;5025;48.890;9.278;2022-07-01T09:28:20;99121.44;;;15.33;79.13
9969;BME280;5025;48.890;9.278;2022-07-01T09:30:47;99099.50;;;15.39;78.91
9969;BME280;5025;48.890;9.278;2022-07-01T09:33:23;99081.91;;;15.47;78.75
9969;BME280;5025;48.890;9.278;2022-07-01T09:35:50;99087.16;;;15.54;78.73
9969;BME280;5025;48.890;9.278;2022-07-01T09:38:17;99103.25;;;15.55;78.72
9969;BME280;5025;48.890;9.278;2022-07-01T09:40:55;99110.66;;;15.60;78.78
9969;BME280;5025;48.890;9.278;2022-07-01T09:43:26;99116.72;;;15.67;78.75
9969;BME280;5025;48.890;9.278;2022-07-01T09:45:52;99125.75;;;15.73;78.56
9969;BME280;5025;48.890;9.278;2022-07-01T09:48:18;99137.72;;;15.72;78.60
9969;BME280;5025;48.890;9.278;2022-07-01T09:50:44;99132.22;;;15.67;78.75
9969;BME280;5025;48.890;9.278;2022-07-01T09:53:10;99121.84;;;15.64;78.94
9969;BME280;5025;48.890;9.278;2022-07-01T09:55:36;99102.22;;;15.62;79.00
9969;BME280;5025;48.890;9.278;2022-07-01T09:58:01;99099.81;;;15.65;79.04
9969;BME280;5025;48.890;9.278;2022-07-01T10:00:27;99104.25;;;15.71;78.67
9969;BME280;5025;48.890;9.278;2022-07-01T10:02:54;99115.19;;;15.76;78.54
9969;BME280;5025;48.890;9.278;2022-07-01T10:05:20;99110.59;;;15.77;78.59
9969;BME280;5025;48.890;9.278;2022-07-01T10:13:16;99113.72;;;15.69;78.56
9969;BME280;5025;48.890;9.278;2022-07-01T10:15:43;99133.94;;;15.73;78.16
9969;BME280;5025;48.890;9.278;2022-07-01T10:20:47;99130.06;;;15.69;77.83
9969;BME280;5025;48.890;9.278;2022-07-01T10:23:12;99138.75;;;15.66;77.47
9969;BME280;5025;48.890;9.278;2022-07-01T10:25:46;99143.94;;;15.67;77.37
9969;BME280;5025;48.890;9.278;2022-07-01T10:28:22;99142.59;;;15.70;77.17
9969;BME280;5025;48.890;9.278;2022-07-01T10:31:05;99141.22;;;15.89;77.07
9969;BME280;5025;48.890;9.278;2022-07-01T10:41:35;99156.63;;;16.28;76.26
9969;BME280;5025;48.890;9.278;2022-07-01T10:44:04;99153.56;;;16.19;76.21
9969;BME280;5025;48.890;9.278;2022-07-01T10:46:42;99148.34;;;16.18;76.15
9969;BME280;5025;48.890;9.278;2022-07-01T10:49:14;99148.03;;;16.14;76.14
9969;BME280;5025;48.890;9.278;2022-07-01T10:51:54;99162.41;;;16.09;75.73
9969;BME280;5025;48.890;9.278;2022-07-01T10:59:46;99185.88;;;16.10;75.14
9969;BME280;5025;48.890;9.278;2022-07-01T11:02:28;99186.59;;;16.01;73.95
9969;BME280;5025;48.890;9.278;2022-07-01T11:04:56;99188.16;;;15.97;72.90
9969;BME280;5025;48.890;9.278;2022-07-01T11:07:25;99185.88;;;16.10;72.56
9969;BME280;5025;48.890;9.278;2022-07-01T11:09:51;99183.41;;;16.09;71.44
9969;BME280;5025;48.890;9.278;2022-07-01T11:12:16;99178.59;;;16.16;71.72
9969;BME280;5025;48.890;9.278;2022-07-01T11:14:42;99185.41;;;16.19;69.22
9969;BME280;5025;48.890;9.278;2022-07-01T11:17:09;99183.94;;;16.33;69.62
9969;BME280;5025;48.890;9.278;2022-07-01T11:19:35;99177.06;;;16.25;68.80
9969;BME280;5025;48.890;9.278;2022-07-01T11:22:02;99180.19;;;16.39;68.91
9969;BME280;5025;48.890;9.278;2022-07-01T11:24:28;99170.97;;;16.45;68.96
9969;BME280;5025;48.890;9.278;2022-07-01T11:27:20;99171.38;;;16.59;67.98
9969;BME280;5025;48.890;9.278;2022-07-01T11:30:00;99171.06;;;16.56;65.17
9969;BME280;5025;48.890;9.278;2022-07-01T11:32:28;99158.59;;;16.65;66.56
9969;BME280;5025;48.890;9.278;2022-07-01T11:34:54;99163.28;;;17.02;66.28
9969;BME280;5025;48.890;9.278;2022-07-01T11:37:20;99156.91;;;17.29;66.80
9969;BME280;5025;48.890;9.278;2022-07-01T11:40:10;99155.63;;;17.42;65.98
9969;BME280;5025;48.890;9.278;2022-07-01T11:42:35;99152.47;;;17.70;65.88
9969;BME280;5025;48.890;9.278;2022-07-01T11:45:03;99151.00;;;18.00;65.63
9969;BME280;5025;48.890;9.278;2022-07-01T11:47:32;99148.31;;;18.21;65.72
9969;BME280;5025;48.890;9.278;2022-07-01T11:49:58;99151.34;;;18.35;65.63
9969;BME280;5025;48.890;9.278;2022-07-01T11:52:25;99154.38;;;18.43;63.95
9969;BME280;5025;48.890;9.278;2022-07-01T11:54:54;99153.53;;;18.33;61.84
9969;BME280;5025;48.890;9.278;2022-07-01T11:57:25;99161.75;;;18.43;62.18
9969;BME280;5025;48.890;9.278;2022-07-01T11:59:53;99160.91;;;18.27;60.68
9969;BME280;5025;48.890;9.278;2022-07-01T12:02:20;99163.59;;;18.12;60.25
9969;BME280;5025;48.890;9.278;2022-07-01T12:04:47;99159.22;;;18.05;60.75
9969;BME280;5025;48.890;9.278;2022-07-01T12:07:14;99160.31;;;18.15;61.18
9969;BME280;5025;48.890;9.278;2022-07-01T12:09:39;99165.00;;;18.24;61.16
9969;BME280;5025;48.890;9.278;2022-07-01T12:12:06;99155.44;;;18.27;60.88
9969;BME280;5025;48.890;9.278;2022-07-01T12:14:33;99162.25;;;18.14;60.66
9969;BME280;5025;48.890;9.278;2022-07-01T12:17:02;99158.41;;;18.05;60.33
9969;BME280;5025;48.890;9.278;2022-07-01T12:19:41;99155.25;;;17.76;59.81
9969;BME280;5025;48.890;9.278;2022-07-01T12:22:11;99150.34;;;17.78;60.27
9969;BME280;5025;48.890;9.278;2022-07-01T12:24:37;99149.81;;;17.86;60.49
9969;BME280;5025;48.890;9.278;2022-07-01T12:27:06;99154.72;;;17.79;61.17
9969;BME280;5025;48.890;9.278;2022-07-01T12:29:52;99157.19;;;17.80;60.89
9969;BME280;5025;48.890;9.278;2022-07-01T12:32:20;99156.13;;;17.86;60.83
9969;BME280;5025;48.890;9.278;2022-07-01T12:34:53;99156.97;;;17.92;60.77
9969;BME280;5025;48.890;9.278;2022-07-01T12:37:35;99163.03;;;18.04;60.54
9969;BME280;5025;48.890;9.278;2022-07-01T12:40:06;99170.72;;;18.13;60.47
9969;BME280;5025;48.890;9.278;2022-07-01T12:42:34;99159.25;;;18.21;60.35
9969;BME280;5025;48.890;9.278;2022-07-01T12:45:04;99158.16;;;18.32;60.36
9969;BME280;5025;48.890;9.278;2022-07-01T12:50:17;99162.03;;;18.62;59.52
9969;BME280;5025;48.890;9.278;2022-07-01T12:53:05;99147.25;;;18.68;59.21
9969;BME280;5025;48.890;9.278;2022-07-01T12:55:36;99137.16;;;18.74;58.87
9969;BME280;5025;48.890;9.278;2022-07-01T12:58:07;99145.63;;;18.83;58.92
9969;BME280;5025;48.890;9.278;2022-07-01T13:00:33;99137.44;;;18.88;58.78
9969;BME280;5025;48.890;9.278;2022-07-01T13:03:00;99148.06;;;18.63;57.89
9969;BME280;5025;48.890;9.278;2022-07-01T13:05:27;99147.78;;;18.50;57.17
9969;BME280;5025;48.890;9.278;2022-07-01T13:07:52;99140.97;;;18.57;57.19
9969;BME280;5025;48.890;9.278;2022-07-01T13:10:18;99142.88;;;18.72;57.14
9969;BME280;5025;48.890;9.278;2022-07-01T13:12:44;99140.16;;;18.83;56.99
9969;BME280;5025;48.890;9.278;2022-07-01T13:15:11;99145.09;;;18.96;56.84
9969;BME280;5025;48.890;9.278;2022-07-01T13:17:36;99145.34;;;19.10;56.80
9969;BME280;5025;48.890;9.278;2022-07-01T13:20:02;99139.56;;;19.27;56.66
9969;BME280;5025;48.890;9.278;2022-07-01T13:22:27;99141.50;;;19.26;56.20
9969;BME280;5025;48.890;9.278;2022-07-01T13:24:53;99150.78;;;19.35;55.93
9969;BME280;5025;48.890;9.278;2022-07-01T13:27:18;99149.41;;;19.43;55.82
9969;BME280;5025;48.890;9.278;2022-07-01T13:29:43;99147.41;;;19.59;55.66
9969;BME280;5025;48.890;9.278;2022-07-01T13:32:08;99154.78;;;19.74;55.45
9969;BME280;5025;48.890;9.278;2022-07-01T13:34:34;99149.81;;;19.81;54.92
9969;BME280;5025;48.890;9.278;2022-07-01T13:37:00;99154.25;;;19.77;54.79
9969;BME280;5025;48.890;9.278;2022-07-01T13:39:25;99158.53;;;19.94;55.00
9969;BME280;5025;48.890;9.278;2022-07-01T13:41:51;99149.66;;;20.17;54.57
9969;BME280;5025;48.890;9.278;2022-07-01T13:44:16;99160.34;;;20.58;53.93
9969;BME280;5025;48.890;9.278;2022-07-01T13:46:42;99165.19;;;20.77;53.83